Time;durP1;ratioP1;P1;durP2;ratioP2;P2;SDS_P1;SDS_P2;PMS_P1;PMS_P2;Temp;Humidity;BMP_temperature;BMP_pressure;BME280_temperature;BME280_humidity;BME280_pressure;Samples;Min_cycle;Max_cycle;Signal;HPM_P1;HPM_P2
2022/01/18 00:00:28;;;;;;;15.80;4.72;;;;;;;-0.14;77.09;99014.02;1738049;82;21145;-57
2022/01/18 00:02:58;;;;;;;14.78;4.47;;;;;;;-0.10;77.13;99010.46;1737749;82;20957;-57
2022/01/18 00:05:26;;;;;;;21.53;6.73;;;;;;;-0.13;77.33;99006.85;1731443;82;21003;-56
2022/01/18 00:07:53;;;;;;;15.25;5.80;;;;;;;-0.14;77.42;99007.87;1713559;82;20964;-56
2022/01/18 00:10:22;;;;;;;13.93;4.42;;;;;;;-0.15;77.41;99024.36;1723344;82;21064;-57
2022/01/18 00:15:40;;;;;;;12.58;4.10;;;;;;;-0.17;77.45;99035.72;1737996;82;21095;-56
2022/01/18 00:20:51;;;;;;;23.42;6.45;;;;;;;-0.09;77.30;99036.91;1713572;82;20948;-57
2022/01/18 00:23:02;;;;;;;15.83;5.60;;;;;;;-0.16;77.43;99048.53;1712551;82;21474;-57
2022/01/18 00:25:30;;;;;;;13.58;4.97;;;;;;;-0.17;77.63;99062.36;1734975;82;39850;-57
2022/01/18 00:27:57;;;;;;;21.97;5.33;;;;;;;-0.14;77.80;99058.49;1737834;82;21021;-57
2022/01/18 00:30:52;;;;;;;14.23;4.60;;;;;;;-0.16;77.82;99065.34;1723903;80;20996;-57
2022/01/18 00:33:16;;;;;;;13.30;4.60;;;;;;;-0.14;77.84;99069.14;1734704;82;24964;-56
2022/01/18 00:35:34;;;;;;;12.23;4.85;;;;;;;-0.16;77.71;99057.35;1722987;82;20964;-57
2022/01/18 00:38:00;;;;;;;17.25;6.78;;;;;;;-0.13;77.98;99064.14;1715207;82;27094;-57
2022/01/18 00:40:27;;;;;;;15.85;4.95;;;;;;;-0.13;77.88;99062.30;1685014;83;21009;-58
2022/01/18 00:42:54;;;;;;;15.90;7.00;;;;;;;-0.15;78.16;99071.50;1712820;82;20998;-57
2022/01/18 00:45:21;;;;;;;13.53;4.50;;;;;;;-0.13;78.04;99071.63;1718966;82;21354;-57
2022/01/18 00:47:48;;;;;;;12.07;5.15;;;;;;;-0.08;77.97;99075.08;1737969;82;21379;-57
2022/01/18 00:50:15;;;;;;;12.58;7.17;;;;;;;-0.12;78.31;99076.44;1737940;82;21419;-57
2022/01/18 00:52:49;;;;;;;18.17;6.40;;;;;;;-0.15;78.31;99079.48;1737840;82;21045;-57
2022/01/18 00:55:13;;;;;;;15.40;6.17;;;;;;;-0.05;78.14;99080.02;1737383;82;28452;-57
2022/01/18 00:57:39;;;;;;;14.33;5.00;;;;;;;-0.10;78.08;99081.07;1738085;82;21371;-57
2022/01/18 01:00:08;;;;;;;17.12;4.92;;;;;;;-0.11;77.95;99081.58;1737902;82;21170;-58
2022/01/18 01:02:34;;;;;;;13.43;5.25;;;;;;;-0.11;78.21;99084.75;1737842;82;22507;-57
2022/01/18 01:05:00;;;;;;;18.17;7.30;;;;;;;-0.11;78.21;99096.23;1737663;82;20988;-56
2022/01/18 01:07:26;;;;;;;15.25;5.87;;;;;;;0.03;77.76;99091.09;1738169;82;20846;-57
2022/01/18 01:09:53;;;;;;;12.53;5.75;;;;;;;-0.02;77.60;99081.80;1737877;82;20861;-56
2022/01/18 01:12:23;;;;;;;8.80;4.80;;;;;;;-0.09;77.92;99091.54;1737989;82;20941;-57
2022/01/18 01:14:58;;;;;;;12.90;5.40;;;;;;;-0.14;78.07;99091.80;1737970;82;21745;-56
2022/01/18 01:17:40;;;;;;;9.28;3.80;;;;;;;-0.14;78.24;99097.95;1737539;82;21021;-57
2022/01/18 01:36:28;;;;;;;13.10;4.22;;;;;;;-0.40;78.56;99102.91;1713403;82;21645;-56
2022/01/18 01:46:38;;;;;;;13.28;5.10;;;;;;;-0.51;78.94;99099.34;1737832;82;20984;-56
2022/01/18 01:49:09;;;;;;;11.15;5.05;;;;;;;-0.53;79.04;99092.88;1737959;82;21060;-56
2022/01/18 01:51:34;;;;;;;23.15;4.55;;;;;;;-0.54;79.06;99091.73;1715102;82;21039;-55
2022/01/18 01:54:08;;;;;;;14.33;4.40;;;;;;;-144.47;100.00;119103.59;1694388;83;564430;-56
2022/01/18 05:37:50;;;;;;;11.20;3.20;;;;;;;-0.54;79.10;99107.20;1715340;82;20939;-56
2022/01/18 05:40:18;;;;;;;20.20;10.68;;;;;;;-0.54;79.10;99107.20;1695504;80;969142;-57
2022/01/18 05:42:47;;;;;;;22.70;10.38;;;;;;;-0.93;100.00;119103.59;1702480;82;949564;-57
2022/01/18 05:45:13;;;;;;;14.50;6.70;;;;;;;-0.93;83.15;99249.79;1697060;80;874784;-58
2022/01/18 05:47:42;;;;;;;17.85;7.05;;;;;;;-0.93;83.15;99249.79;1647107;82;975027;-57
2022/01/18 05:50:09;;;;;;;21.60;8.00;;;;;;;-0.93;83.15;99249.79;1657955;82;919520;-57
2022/01/18 05:52:35;;;;;;;13.43;5.28;;;;;;;-0.67;82.34;99266.24;1718479;82;21366;-58
2022/01/18 05:55:03;;;;;;;15.03;5.42;;;;;;;-0.75;82.62;99269.47;1716921;82;20957;-57
2022/01/18 05:57:30;;;;;;;12.13;6.42;;;;;;;-0.91;82.64;99275.72;1713332;82;21397;-58
2022/01/18 06:00:03;;;;;;;12.50;6.03;;;;;;;-0.87;82.91;99266.36;1699722;82;20962;-57
2022/01/18 06:07:37;;;;;;;10.60;4.78;;;;;;;-0.81;82.10;99287.46;1700795;82;21052;-57
2022/01/18 06:10:05;;;;;;;14.07;5.22;;;;;;;-0.89;81.89;99278.52;1724660;82;22085;-57
2022/01/18 06:12:32;;;;;;;7.05;4.95;;;;;;;-0.79;81.67;99282.28;1721618;82;20943;-57
2022/01/18 06:14:59;;;;;;;12.03;4.80;;;;;;;-0.81;81.56;99279.48;1716118;82;21369;-57
2022/01/18 06:17:26;;;;;;;13.58;5.72;;;;;;;-0.79;81.74;99280.95;1738072;82;21052;-58
2022/01/18 06:19:53;;;;;;;11.18;4.92;;;;;;;-0.81;81.63;99286.95;1717512;82;21064;-57
2022/01/18 06:22:20;;;;;;;18.60;6.65;;;;;;;-0.85;81.68;99294.98;1712003;82;21952;-57
2022/01/18 06:24:46;;;;;;;7.85;5.37;;;;;;;-0.82;81.47;99304.44;1729320;82;20993;-57
2022/01/18 06:27:13;;;;;;;17.30;6.62;;;;;;;-0.79;81.57;99293.43;1722733;82;21449;-57
2022/01/18 06:29:40;;;;;;;18.32;6.10;;;;;;;-0.73;81.70;99294.89;1719995;82;21487;-57
2022/01/18 06:32:07;;;;;;;13.80;6.45;;;;;;;-0.73;81.50;99302.05;1718026;82;21055;-57
2022/01/18 06:34:34;;;;;;;17.50;6.45;;;;;;;-0.77;81.83;99299.40;1719298;82;21408;-57
2022/01/18 06:37:01;;;;;;;9.73;6.08;;;;;;;-0.74;81.75;99305.22;1735622;80;21017;-58
2022/01/18 06:39:28;;;;;;;11.68;5.37;;;;;;;-0.70;81.85;99312.34;1742164;80;21016;-57
2022/01/18 06:41:55;;;;;;;15.68;6.17;;;;;;;-0.70;81.82;99315.00;1674113;84;21012;-58
2022/01/18 06:44:24;;;;;;;9.18;4.35;;;;;;;-0.69;81.77;99310.00;1724721;82;20977;-57
2022/01/18 06:46:50;;;;;;;17.12;6.12;;;;;;;-0.68;81.53;99324.49;1722690;82;23760;-57
2022/01/18 06:49:19;;;;;;;17.25;7.58;;;;;;;-0.68;81.65;99324.49;1677834;82;927770;-58
2022/01/18 06:51:45;;;;;;;17.27;6.03;;;;;;;-0.68;81.65;99324.49;1695275;82;974420;-57
2022/01/18 06:55:06;;;;;;;22.33;8.33;;;;;;;-0.60;80.65;99332.90;1488776;82;984175;-57
2022/01/18 06:57:33;;;;;;;20.20;9.60;;;;;;;-0.60;80.65;99332.90;1520709;82;975049;-57
2022/01/18 07:00:01;;;;;;;17.40;9.85;;;;;;;-0.50;80.41;99334.03;1720603;82;21175;-56
2022/01/18 07:02:33;;;;;;;13.57;5.17;;;;;;;-144.47;81.06;99346.16;1693995;82;984496;-57
2022/01/18 10:10:21;;;;;;;13.13;6.20;;;;;;;-0.52;81.06;99346.16;1673067;82;974381;-55
2022/01/18 10:12:56;;;;;;;8.28;4.60;;;;;;;-0.52;81.06;99346.16;1699202;82;839362;-57
2022/01/18 10:15:23;;;;;;;16.27;5.30;;;;;;;0.49;74.82;99531.70;1679164;82;866985;-56
2022/01/18 10:17:50;;;;;;;15.13;5.37;;;;;;;0.33;75.31;99535.31;1713265;82;20933;-57
2022/01/18 10:20:20;;;;;;;13.83;5.22;;;;;;;0.38;75.51;99536.13;1707855;82;21026;-57
2022/01/18 10:22:49;;;;;;;18.75;5.45;;;;;;;0.43;75.76;99538.59;1715652;82;21083;-57
2022/01/18 10:25:19;;;;;;;11.50;5.20;;;;;;;0.31;75.77;99541.83;1720043;82;21028;-57
2022/01/18 10:27:49;;;;;;;20.15;5.90;;;;;;;0.35;76.07;99539.98;1722355;82;21084;-56
2022/01/18 10:30:24;;;;;;;13.60;8.30;;;;;;;0.41;75.88;99534.42;1716279;82;21632;-57
2022/01/18 10:33:14;;;;;;;10.72;5.83;;;;;;;0.48;75.75;99534.88;1713547;82;21021;-58
2022/01/18 10:36:13;;;;;;;11.12;4.45;;;;;;;0.26;75.38;99543.20;1715164;82;21453;-57
2022/01/18 10:38:48;;;;;;;12.13;4.78;;;;;;;0.26;75.59;99548.54;1713311;82;21056;-56
2022/01/18 10:41:34;;;;;;;7.97;4.05;;;;;;;0.01;75.04;99548.36;1715913;82;20976;-56
2022/01/18 10:44:14;;;;;;;13.90;4.97;;;;;;;0.06;75.12;99555.30;1718420;82;21099;-56
2022/01/18 10:46:49;;;;;;;20.20;6.72;;;;;;;0.06;75.37;99550.48;1713070;82;21580;-57
2022/01/18 10:49:33;;;;;;;17.77;6.47;;;;;;;-0.06;76.35;99551.38;1714377;82;21051;-56
2022/01/18 10:52:05;;;;;;;16.40;6.08;;;;;;;0.01;76.77;99549.69;1714264;82;21130;-57
2022/01/18 10:54:45;;;;;;;20.32;7.65;;;;;;;-0.15;77.66;99556.42;1708967;82;21015;-57
2022/01/18 10:57:27;;;;;;;20.00;8.18;;;;;;;-0.11;78.24;99556.39;1711625;82;21111;-57
2022/01/18 11:00:21;;;;;;;18.32;6.67;;;;;;;-0.12;78.68;99564.06;1695705;82;21052;-56
2022/01/18 11:02:51;;;;;;;18.80;6.30;;;;;;;-0.08;78.78;99566.72;1720102;82;21028;-57
2022/01/18 11:05:22;;;;;;;14.20;7.17;;;;;;;-0.12;77.96;99559.56;1724170;82;20969;-57
2022/01/18 11:07:49;;;;;;;16.95;6.15;;;;;;;-0.07;77.62;99568.38;1719763;82;21059;-57
2022/01/18 11:10:18;;;;;;;17.17;6.53;;;;;;;-0.22;77.32;99570.94;1717981;82;21061;-56
2022/01/18 11:12:52;;;;;;;12.40;6.20;;;;;;;-0.24;77.08;99574.28;1718243;82;21454;-56
2022/01/18 11:15:21;;;;;;;16.07;5.30;;;;;;;-0.19;77.10;99583.07;1714855;82;21429;-56
2022/01/18 11:17:56;;;;;;;18.40;6.40;;;;;;;-0.18;77.07;99574.90;1718296;82;21040;-57
2022/01/18 11:20:20;;;;;;;18.02;8.43;;;;;;;-0.18;77.28;99582.06;1710433;82;21445;-57
2022/01/18 11:22:48;;;;;;;26.65;10.88;;;;;;;-0.24;77.43;99585.44;1704494;82;21394;-56
2022/01/18 11:25:15;;;;;;;48.38;19.20;;;;;;;-0.08;77.57;99584.05;1717973;82;21589;-57
2022/01/18 11:27:47;;;;;;;33.35;13.08;;;;;;;0.09;77.51;99587.47;1703169;82;21072;-56
2022/01/18 11:30:11;;;;;;;31.30;11.57;;;;;;;0.15;77.68;99588.91;1713338;80;21516;-57
2022/01/18 11:32:39;;;;;;;19.80;8.95;;;;;;;0.20;77.63;99586.56;1710324;82;21001;-57
2022/01/18 11:35:13;;;;;;;16.20;7.40;;;;;;;0.19;77.52;99588.08;1715339;82;21179;-57
2022/01/18 11:38:07;;;;;;;16.70;6.92;;;;;;;0.28;77.34;99596.36;1654378;85;21442;-57
2022/01/18 11:40:55;;;;;;;12.15;5.55;;;;;;;0.35;77.22;99602.66;1657845;85;21046;-57
2022/01/18 11:43:44;;;;;;;15.08;6.08;;;;;;;0.26;76.75;99591.20;1711847;82;21401;-57
2022/01/18 11:46:25;;;;;;;17.63;8.03;;;;;;;0.18;76.02;99590.42;1670827;82;929189;-57
2022/01/18 11:49:33;;;;;;;15.32;6.67;;;;;;;0.18;76.02;99590.42;1564344;82;975890;-57
2022/01/18 11:52:34;;;;;;;16.32;7.30;;;;;;;0.18;76.02;99590.42;1594567;82;984186;-56
2022/01/18 11:55:58;;;;;;;17.10;7.73;;;;;;;0.18;76.02;99590.42;1676285;82;984697;-57
2022/01/18 11:58:27;;;;;;;25.08;8.35;;;;;;;-144.47;100.00;119103.59;1548244;82;976076;-56
2022/01/18 12:01:00;;;;;;;27.85;13.53;;;;;;;0.18;76.02;99590.42;1569120;82;975515;-56
2022/01/18 12:03:45;;;;;;;16.65;8.90;;;;;;;0.11;78.17;99590.78;1570499;82;975496;-57
2022/01/18 12:06:12;;;;;;;18.30;7.50;;;;;;;0.11;78.17;99590.78;1684705;82;963279;-57
2022/01/18 12:08:52;;;;;;;18.95;8.38;;;;;;;0.12;78.33;99601.77;1619104;82;975118;-54
2022/01/18 12:11:33;;;;;;;15.00;7.67;;;;;;;0.12;78.33;99601.77;1546611;82;975588;-57
2022/01/18 12:14:00;;;;;;;42.90;15.55;;;;;;;0.44;77.93;99600.77;1702759;82;760416;-57
2022/01/18 12:16:29;;;;;;;56.02;26.30;;;;;;;0.50;77.99;99599.53;1718494;82;21774;-56
2022/01/18 12:19:04;;;;;;;42.53;18.27;;;;;;;0.60;77.77;99610.01;1690002;83;28801;-57
2022/01/18 12:21:31;;;;;;;30.85;13.55;;;;;;;0.66;77.59;99625.28;1722062;82;21089;-56
2022/01/18 12:24:14;;;;;;;17.17;9.40;;;;;;;0.81;77.44;99629.36;1682675;83;21013;-56
2022/01/18 12:26:47;;;;;;;18.52;6.05;;;;;;;0.80;76.92;99640.55;1690273;82;21442;-57
2022/01/18 12:34:46;;;;;;;27.70;10.53;;;;;;;0.35;77.61;99645.83;1718238;82;21010;-57
2022/01/18 12:37:19;;;;;;;20.35;9.08;;;;;;;0.39;77.64;99645.28;1716488;82;21390;-56
2022/01/18 12:45:20;;;;;;;22.67;8.18;;;;;;;0.26;77.05;99643.20;1716981;82;21466;-56
2022/01/18 12:48:05;;;;;;;15.15;7.55;;;;;;;0.10;77.56;99637.94;1715102;82;21079;-56
2022/01/18 12:50:47;;;;;;;21.77;8.08;;;;;;;0.15;77.72;99641.40;1706396;82;21103;-57
2022/01/18 12:53:27;;;;;;;19.10;9.10;;;;;;;0.20;77.94;99643.06;1659030;85;21587;-56
2022/01/18 12:56:05;;;;;;;22.90;8.20;;;;;;;0.19;78.02;99648.89;1712888;82;21051;-56
2022/01/18 12:58:38;;;;;;;16.02;7.72;;;;;;;-0.03;79.83;99654.46;1721402;82;21026;-56
2022/01/18 13:01:13;;;;;;;21.90;10.00;;;;;;;0.12;79.45;99650.58;1716727;82;21218;-56
2022/01/18 13:03:43;;;;;;;19.12;9.58;;;;;;;0.19;79.49;99653.39;1715381;82;21131;-56
2022/01/18 13:06:15;;;;;;;19.85;9.68;;;;;;;0.24;78.91;99648.36;1712372;82;20989;-56
2022/01/18 13:09:00;;;;;;;24.25;10.28;;;;;;;0.27;79.06;99650.19;1718243;80;22382;-56
2022/01/18 13:11:32;;;;;;;26.77;11.40;;;;;;;0.31;78.75;99656.00;1680208;84;21037;-57
2022/01/18 13:14:03;;;;;;;23.73;10.80;;;;;;;0.15;78.65;99655.56;1667155;83;21077;-55
2022/01/18 13:25:03;;;;;;;15.60;8.38;;;;;;;0.19;78.29;99650.23;1726354;82;21063;-57
2022/01/18 13:27:27;;;;;;;32.42;14.38;;;;;;;0.23;77.92;99652.86;1721867;82;21063;-56
2022/01/18 13:29:52;;;;;;;27.45;11.53;;;;;;;0.33;78.21;99647.81;1710687;82;21060;-56
2022/01/18 13:32:30;;;;;;;;;;;;;;;0.38;77.81;99654.30;1716653;82;21358;-56
2022/01/18 13:34:56;;;;;;;105.67;46.77;;;;;;;0.40;77.85;99649.61;1650183;85;20986;-57
2022/01/18 13:37:27;;;;;;;45.10;20.75;;;;;;;0.37;77.13;99653.97;1659476;83;21008;-56
2022/01/18 13:39:55;;;;;;;163.20;73.45;;;;;;;0.38;76.86;99662.30;1696356;82;21098;-56
2022/01/18 13:42:31;;;;;;;24.30;11.20;;;;;;;0.34;76.79;99660.14;1718760;82;21025;-57
2022/01/18 13:45:25;;;;;;;26.73;11.78;;;;;;;0.40;76.57;99664.78;1720929;82;21054;-57
2022/01/18 13:47:59;;;;;;;66.35;28.67;;;;;;;0.52;77.11;99663.41;1716040;82;21079;-56
2022/01/18 13:50:39;;;;;;;64.47;32.53;;;;;;;0.60;77.15;99657.17;1700753;82;21849;-56
2022/01/18 13:53:11;;;;;;;42.90;16.02;;;;;;;0.51;75.53;99664.38;1718863;82;21004;-56
2022/01/18 13:55:48;;;;;;;36.77;16.87;;;;;;;0.58;76.58;99673.86;1724493;82;21030;-56
2022/01/18 13:58:29;;;;;;;36.10;18.73;;;;;;;0.53;76.34;99678.41;1701448;82;20993;-55
2022/01/18 14:01:09;;;;;;;22.60;9.15;;;;;;;0.39;75.88;99679.95;1717145;82;20973;-57
2022/01/18 14:03:43;;;;;;;21.12;8.10;;;;;;;0.28;76.09;99685.18;1714476;82;21466;-55
2022/01/18 14:06:11;;;;;;;20.68;6.80;;;;;;;0.27;76.36;99687.52;1718291;82;21466;-56
2022/01/18 14:08:45;;;;;;;22.40;9.37;;;;;;;0.27;76.41;99688.86;1715867;82;21573;-56
2022/01/18 14:11:21;;;;;;;24.35;10.30;;;;;;;0.26;76.29;99689.86;1709070;82;21024;-57
2022/01/18 14:13:48;;;;;;;25.37;9.30;;;;;;;0.34;76.35;99697.48;1716445;82;21744;-56
2022/01/18 14:16:30;;;;;;;30.37;13.45;;;;;;;0.31;76.55;99696.00;1713861;82;21110;-56
2022/01/18 14:19:08;;;;;;;33.00;15.85;;;;;;;0.38;76.56;99697.47;1713365;82;21061;-56
2022/01/18 14:21:49;;;;;;;30.35;11.97;;;;;;;0.41;76.59;99697.94;1715387;82;21436;-55
2022/01/18 14:24:37;;;;;;;41.23;16.55;;;;;;;0.41;76.34;99699.78;1711918;82;22323;-56
2022/01/18 14:27:06;;;;;;;23.02;10.98;;;;;;;0.39;76.39;99701.30;1701193;82;21672;-57
2022/01/18 14:29:47;;;;;;;19.45;8.15;;;;;;;0.44;76.68;99708.80;1720377;82;21403;-55
2022/01/18 14:32:34;;;;;;;23.73;10.75;;;;;;;0.30;75.14;99695.67;1713467;82;21402;-55
2022/01/18 14:35:07;;;;;;;49.55;23.02;;;;;;;0.30;75.90;99706.34;1721586;82;21095;-56
2022/01/18 14:38:03;;;;;;;51.23;21.30;;;;;;;0.34;76.47;99714.30;1720116;82;21060;-55
2022/01/18 14:40:32;;;;;;;34.90;14.75;;;;;;;0.37;76.49;99720.64;1704472;82;21079;-56
2022/01/18 14:43:09;;;;;;;25.57;11.33;;;;;;;0.41;76.53;99713.12;1711425;82;21553;-56
2022/01/18 14:45:36;;;;;;;28.98;12.47;;;;;;;0.43;76.28;99709.30;1716501;82;21032;-56
2022/01/18 14:48:11;;;;;;;30.82;13.80;;;;;;;0.36;75.33;99714.98;1712606;82;21044;-57
2022/01/18 14:50:42;;;;;;;23.90;10.03;;;;;;;0.41;76.14;99711.78;1662981;85;21481;-56
2022/01/18 14:53:08;;;;;;;19.23;8.58;;;;;;;0.38;76.19;99726.81;1713349;82;21476;-56
2022/01/18 14:55:36;;;;;;;20.80;8.25;;;;;;;0.26;74.82;99720.53;1720866;82;21000;-57
2022/01/18 14:58:03;;;;;;;18.92;8.48;;;;;;;0.29;75.63;99730.01;1718014;82;21052;-56
2022/01/18 15:00:30;;;;;;;16.75;6.75;;;;;;;0.29;75.88;99731.34;1725949;82;21499;-57
2022/01/18 15:02:58;;;;;;;23.13;9.70;;;;;;;0.31;75.51;99735.16;1701344;82;565170;-56
2022/01/18 15:05:25;;;;;;;24.80;11.63;;;;;;;0.31;75.51;99735.16;1649105;82;975420;-57
2022/01/18 15:07:52;;;;;;;19.35;8.90;;;;;;;0.31;74.84;99751.99;1710920;82;865293;-56
2022/01/18 15:10:19;;;;;;;16.77;8.15;;;;;;;0.23;74.75;99753.35;1720302;82;21032;-56
2022/01/18 15:12:47;;;;;;;25.45;11.03;;;;;;;0.16;75.08;99753.20;1679259;82;975260;-56
2022/01/18 15:15:16;;;;;;;43.00;20.50;;;;;;;0.16;75.08;99753.20;1673350;85;23354;-56
2022/01/18 15:17:43;;;;;;;59.55;25.45;;;;;;;0.23;75.66;99746.69;1735227;82;34417;-56
2022/01/18 15:20:10;;;;;;;21.77;10.40;;;;;;;0.23;75.61;99749.35;1723615;80;179077;-56
2022/01/18 15:22:37;;;;;;;61.83;27.65;;;;;;;0.17;74.47;99747.36;1665454;82;922350;-56
2022/01/18 15:25:05;;;;;;;91.78;40.25;;;;;;;0.18;75.05;99752.55;1687388;82;974338;-56
2022/01/18 15:27:32;;;;;;;76.73;33.90;;;;;;;0.13;75.08;99754.88;1668582;82;974561;-56
2022/01/18 15:29:59;;;;;;;77.70;31.15;;;;;;;0.11;75.10;99754.23;1716385;82;233954;-56
2022/01/18 15:32:32;;;;;;;58.50;25.88;;;;;;;0.10;75.48;99757.89;1596743;80;975056;-56
2022/01/18 15:34:59;;;;;;;81.08;40.58;;;;;;;0.10;75.48;99757.89;1669282;82;975062;-56
2022/01/18 15:37:25;;;;;;;37.90;19.17;;;;;;;0.20;75.21;99753.70;1689369;81;974517;-56
2022/01/18 15:39:54;;;;;;;45.10;22.17;;;;;;;0.19;75.29;99757.37;1733923;80;838056;-56
2022/01/18 15:42:21;;;;;;;;;;;;;;;0.17;74.94;99763.36;1677281;82;977381;-56
2022/01/18 15:44:48;;;;;;;36.53;17.07;;;;;;;0.10;74.87;99765.89;1708708;82;838336;-55
2022/01/18 15:47:15;;;;;;;23.98;12.98;;;;;;;0.05;74.55;99774.89;1684293;82;865721;-56
2022/01/18 15:49:44;;;;;;;25.08;13.98;;;;;;;0.07;74.62;99776.05;1602891;82;983605;-56
2022/01/18 15:52:11;;;;;;;37.23;12.73;;;;;;;0.07;74.62;99776.05;1558884;82;975096;-56
2022/01/18 15:54:38;;;;;;;23.20;10.25;;;;;;;0.11;74.27;99751.56;1662376;82;984171;-56
2022/01/18 15:57:09;;;;;;;249.85;96.57;;;;;;;0.01;74.27;99750.92;1728027;82;25297;-56
2022/01/18 15:59:39;;;;;;;171.13;75.50;;;;;;;0.01;74.27;99750.92;1711322;82;21448;-56
2022/01/18 16:02:06;;;;;;;122.53;64.20;;;;;;;0.16;74.48;99749.70;1731820;82;21618;-56
2022/01/18 16:04:34;;;;;;;45.73;29.92;;;;;;;0.02;74.78;99749.92;1729864;82;21525;-56
2022/01/18 16:07:01;;;;;;;45.80;23.18;;;;;;;0.02;74.78;99749.92;1722801;82;21439;-56
2022/01/18 16:09:28;;;;;;;32.20;15.03;;;;;;;0.14;74.58;99745.05;1716354;82;21409;-56
2022/01/18 16:11:55;;;;;;;45.40;18.25;;;;;;;0.12;74.74;99747.89;1717150;82;21050;-56
2022/01/18 16:14:22;;;;;;;58.23;29.35;;;;;;;0.08;74.92;99747.05;1722424;82;22094;-56
2022/01/18 16:16:49;;;;;;;57.48;23.40;;;;;;;0.03;74.87;99758.74;1712104;82;20996;-56
2022/01/18 16:19:16;;;;;;;35.65;18.00;;;;;;;0.08;75.07;99756.38;1717973;80;21045;-56
2022/01/18 16:21:43;;;;;;;46.02;19.57;;;;;;;0.11;75.22;99753.40;1715782;80;21095;-56
2022/01/18 16:24:10;;;;;;;34.05;16.25;;;;;;;0.16;75.25;99748.37;1728276;82;20964;-56
2022/01/18 16:26:37;;;;;;;42.53;19.55;;;;;;;0.17;75.38;99740.70;1725823;82;21556;-56
2022/01/18 16:29:05;;;;;;;66.33;28.77;;;;;;;0.18;75.20;99753.88;1711741;82;21509;-56
2022/01/18 16:31:34;;;;;;;34.05;18.57;;;;;;;0.21;75.52;99754.03;1725704;82;20969;-56
2022/01/18 16:34:02;;;;;;;33.38;14.60;;;;;;;0.31;75.52;99765.83;1726027;82;21375;-56
2022/01/18 16:36:29;;;;;;;44.80;22.90;;;;;;;0.34;75.65;99764.14;1726859;82;21372;-56
2022/01/18 16:38:56;;;;;;;42.27;20.55;;;;;;;0.40;75.57;99776.30;1722531;82;20984;-56
2022/01/18 16:41:24;;;;;;;30.50;18.37;;;;;;;0.44;75.77;99774.97;1710293;82;20968;-56
2022/01/18 16:43:51;;;;;;;101.82;39.60;;;;;;;0.52;75.59;99774.94;1726493;82;20983;-56
2022/01/18 16:46:21;;;;;;;58.50;25.82;;;;;;;0.53;75.18;99780.60;1724189;82;20997;-56
2022/01/18 16:48:48;;;;;;;53.08;25.88;;;;;;;0.41;74.92;99793.13;1711012;82;20945;-56
2022/01/18 16:51:15;;;;;;;32.48;16.85;;;;;;;0.35;75.42;99792.50;1669292;85;21109;-56
2022/01/18 16:53:42;;;;;;;58.95;25.82;;;;;;;0.36;75.21;99795.50;1714896;82;21024;-56
2022/01/18 16:56:09;;;;;;;84.40;37.42;;;;;;;0.43;75.23;99781.31;1710002;82;21001;-56
2022/01/18 16:58:41;;;;;;;98.33;42.38;;;;;;;0.32;75.13;99778.98;1719602;82;21520;-56
2022/01/18 17:01:08;;;;;;;106.83;41.05;;;;;;;0.35;75.23;99769.33;1703971;82;21025;-56
2022/01/18 17:03:35;;;;;;;88.07;35.17;;;;;;;0.27;75.32;99774.19;1704550;82;22060;-56
2022/01/18 17:06:02;;;;;;;91.67;38.48;;;;;;;0.33;75.44;99777.98;1705055;82;20987;-56
2022/01/18 17:08:29;;;;;;;85.42;39.73;;;;;;;0.36;75.58;99776.83;1712842;82;21486;-56
2022/01/18 17:10:56;;;;;;;103.17;42.00;;;;;;;0.39;75.50;99779.14;1732173;82;20980;-56
2022/01/18 17:13:23;;;;;;;98.70;38.38;;;;;;;0.45;75.54;99783.80;1736290;82;22146;-56
2022/01/18 17:15:49;;;;;;;107.15;43.42;;;;;;;0.47;75.80;99778.61;1737073;82;21004;-56
2022/01/18 17:18:16;;;;;;;105.47;45.90;;;;;;;0.51;75.67;99781.76;1716638;81;21003;-57
2022/01/18 17:20:45;;;;;;;110.28;47.08;;;;;;;0.60;75.68;99772.75;1712584;82;20968;-56
2022/01/18 17:23:13;;;;;;;110.22;41.63;;;;;;;0.59;75.59;99771.56;1712694;82;28152;-56
2022/01/18 17:25:40;;;;;;;116.40;47.53;;;;;;;0.60;75.38;99773.22;1725860;82;21071;-56
2022/01/18 17:28:10;;;;;;;106.92;44.83;;;;;;;0.57;75.57;99779.74;1715950;82;21019;-56
2022/01/18 17:30:37;;;;;;;91.90;40.48;;;;;;;0.63;75.74;99785.73;1735797;82;21016;-56
2022/01/18 17:33:04;;;;;;;49.75;24.43;;;;;;;0.70;75.62;99787.22;1727766;82;21437;-56
2022/01/18 17:35:30;;;;;;;82.85;37.10;;;;;;;0.65;75.43;99797.56;1714349;82;21041;-56
2022/01/18 17:37:57;;;;;;;46.73;25.60;;;;;;;0.23;73.29;99813.34;1719024;82;21023;-56
2022/01/18 17:40:26;;;;;;;65.92;26.82;;;;;;;0.17;73.94;99798.02;1712992;82;22346;-56
2022/01/18 17:42:53;;;;;;;39.23;18.12;;;;;;;0.19;74.65;99795.53;1736944;82;20977;-56
2022/01/18 17:45:20;;;;;;;22.22;10.00;;;;;;;0.23;74.40;99792.02;1737077;82;21000;-56
2022/01/18 17:47:47;;;;;;;97.15;35.95;;;;;;;0.17;74.16;99792.69;1737177;82;21039;-56
2022/01/18 17:50:14;;;;;;;26.77;13.85;;;;;;;0.20;74.67;99793.20;1726691;82;21008;-56
2022/01/18 17:52:41;;;;;;;59.25;25.05;;;;;;;0.11;73.97;99796.05;1720585;82;21284;-56
2022/01/18 17:55:08;;;;;;;56.80;23.65;;;;;;;0.14;74.55;99789.03;1730939;82;21540;-55
2022/01/18 17:57:35;;;;;;;66.17;29.20;;;;;;;0.16;74.80;99797.69;1737169;82;21067;-56
2022/01/18 18:00:04;;;;;;;32.03;16.37;;;;;;;0.18;74.80;99786.38;1719268;82;21463;-56
2022/01/18 18:02:31;;;;;;;24.05;12.88;;;;;;;0.16;74.75;99783.86;1712741;82;27189;-56
2022/01/18 18:04:58;;;;;;;19.23;10.03;;;;;;;0.13;74.37;99776.20;1694955;82;22083;-56
2022/01/18 18:07:25;;;;;;;24.67;13.18;;;;;;;0.07;74.35;99779.55;1712558;82;21007;-56
2022/01/18 18:09:52;;;;;;;81.30;35.23;;;;;;;0.08;74.53;99785.20;1728270;82;21000;-56
2022/01/18 18:12:19;;;;;;;65.50;28.80;;;;;;;0.06;74.36;99774.39;1736883;82;21453;-56
2022/01/18 18:14:46;;;;;;;42.53;18.82;;;;;;;0.07;74.63;99798.70;1737231;82;21028;-56
2022/01/18 18:17:13;;;;;;;80.65;40.20;;;;;;;0.08;74.62;99786.53;1737079;82;21039;-55
2022/01/18 18:19:40;;;;;;;104.95;56.80;;;;;;;0.12;74.87;99775.05;1709374;82;20961;-56
2022/01/18 18:22:07;;;;;;;107.60;53.58;;;;;;;0.18;75.04;99775.71;1712344;82;20986;-57
2022/01/18 18:24:34;;;;;;;64.65;30.92;;;;;;;0.23;75.13;99778.69;1714785;82;21404;-57
2022/01/18 18:27:02;;;;;;;53.63;24.60;;;;;;;0.28;75.04;99789.68;1736799;82;21001;-56
2022/01/18 18:29:29;;;;;;;31.95;16.75;;;;;;;0.32;74.90;99786.98;1735881;82;21744;-56
2022/01/18 18:31:56;;;;;;;28.23;13.70;;;;;;;0.38;74.94;99797.48;1712175;82;21026;-56
2022/01/18 18:34:24;;;;;;;27.13;13.75;;;;;;;0.39;74.59;99791.14;1701002;82;21038;-56
2022/01/18 18:36:50;;;;;;;29.75;12.35;;;;;;;0.35;74.75;99786.67;1725925;82;21016;-56
2022/01/18 18:39:38;;;;;;;56.08;24.57;;;;;;;0.40;74.81;99785.63;1700621;82;20972;-56
2022/01/18 18:44:22;;;;;;;124.97;59.05;;;;;;;0.49;74.99;99791.27;1712343;82;21031;-56
2022/01/18 18:46:48;;;;;;;72.10;32.50;;;;;;;0.52;75.03;99796.79;1712216;82;21007;-56
2022/01/18 18:49:15;;;;;;;82.02;35.52;;;;;;;0.55;74.93;99794.59;1721832;82;21470;-56
2022/01/18 18:51:41;;;;;;;71.53;33.63;;;;;;;0.53;74.84;99781.94;1736868;82;21000;-56
2022/01/18 18:54:08;;;;;;;44.15;21.60;;;;;;;0.53;74.78;99766.44;1736975;82;21313;-56
2022/01/18 18:56:37;;;;;;;59.10;26.52;;;;;;;0.41;74.48;99764.63;1708612;80;21198;-56
2022/01/18 19:01:43;;;;;;;143.32;54.80;;;;;;;0.35;74.42;99765.84;1718389;82;21066;-56
2022/01/18 19:04:09;;;;;;;92.53;33.50;;;;;;;0.24;74.80;99760.34;1720733;82;21048;-57
2022/01/18 19:06:35;;;;;;;63.98;26.87;;;;;;;0.27;75.13;99778.19;1718510;82;21007;-56
2022/01/18 19:09:03;;;;;;;53.38;21.62;;;;;;;0.35;75.36;99777.33;1712433;82;21003;-56
2022/01/18 19:11:30;;;;;;;44.65;19.17;;;;;;;0.40;75.27;99785.63;1712315;82;21066;-56
2022/01/18 19:14:00;;;;;;;51.10;20.43;;;;;;;0.42;75.17;99801.46;1718941;82;21277;-56
2022/01/18 19:16:34;;;;;;;47.23;20.95;;;;;;;0.33;74.92;99818.48;1732762;82;26531;-57
2022/01/18 19:18:56;;;;;;;107.52;37.83;;;;;;;0.35;75.28;99817.84;1711918;82;21691;-56
2022/01/18 19:21:25;;;;;;;102.35;35.52;;;;;;;0.33;74.66;99817.16;1712148;82;21369;-56
2022/01/18 19:23:53;;;;;;;56.75;25.43;;;;;;;0.24;74.90;99813.67;1718295;82;25760;-56
2022/01/18 19:26:20;;;;;;;42.00;18.85;;;;;;;0.20;75.20;99807.03;1724172;82;21011;-56